Aireys Inlet, Victoria

12:07 PM AEST on April 26, 2015 (GMT +1000)
Otway National Park Bushland | | Change Station
CLOSE
Current Station
Personal Weather Station
Location: Wensleydale, VICTORIA
Elevation: 722 ft
Nearby Weather Stations

Elev 722 ft 38.35 °S, 144.04 °E | Updated 16 seconds ago

Overcast
Overcast
55.1 °F
Feels Like 55.1 °F
N
2.0
Wind Variable Wind from SW
Gusts 5.0 mph

Today
High -- | Low -- °F
--% Chance of Precip.
Yesterday
High -- | Low -- °F
Precip. -- in
7:00 AM 5:42 PM
Waxing Crescent, 51% visible
Pressure 30.06 in
Visibility 6.2 miles
Clouds Scattered Clouds 3500 ft
Overcast 4700 ft
Dew Point 48 °F
Humidity 78%
Rainfall 0.02 in
Snow Depth Not available.
UV 2 out of 12
Pollen Not available.
Air Quality Not available.
Flu Activity Not available.
METAR YMAV 260200Z AUTO 23016KT 9999 // SCT035 OVC047 14/08 Q1018

More Conditions Fewer Conditions

Pressure 30.06 in
Visibility 6.2 miles
Clouds Scattered Clouds 3500 ft
Overcast 4700 ft
Dew Point 48 °F
Humidity 78%
Rainfall 0.02 in
Snow Depth Not available.
UV 2 out of 12
Pollen Not available.
Air Quality Not available.
Flu Activity Not available.
METAR YMAV 260200Z AUTO 23016KT 9999 // SCT035 OVC047 14/08 Q1018

More Conditions Fewer Conditions

10-Day Weather Forecast

Almanac

Astronomy

Apr. 26, 2015 Rise Set
Actual Time
Civil Twilight
Nautical Twilight
Astronomical Twilight
Moon
Length of Visible Light
Length of Day
Tomorrow will be .
, % of the Moon is Illuminated

Today's Extremes

Country Highs Country Lows

Community

WunderPhotos

Upload Photos

1,816,899 photos uploaded!

WunderBlogs® & News

Nearby

Air Quality

  Air Quality AQ Index Pollutant
Not available.

Snow Depth

Station Depth Elevation

Earthquake Activity

City Distance Mag. Time & Date
Minimum magnitude displayed is 2.5.

Coastal Water Temperatures

Place Temperature

Stations

Nearby Weather Stations

Station Location Temp. Windchill Dew Point Humidity Wind Precip. Elev Updated Type